Time;durP1;ratioP1;P1;durP2;ratioP2;P2;SDS_P1;SDS_P2;PMS_P1;PMS_P2;Temp;Humidity;BMP_temperature;BMP_pressure;BME280_temperature;BME280_humidity;BME280_pressure;Samples;Min_cycle;Max_cycle;Signal;HPM_P1;HPM_P2
2021/03/22 00:01:56;;;;;;;6.13;4.23;;;;;;;-0.32;100.00;93610.69;10458445;28;20684;-82
2021/03/22 00:06:57;;;;;;;8.20;4.27;;;;;;;-0.40;100.00;93594.19;10456797;28;20032;-83
2021/03/22 00:11:57;;;;;;;9.07;4.63;;;;;;;-0.24;100.00;93595.31;10456525;28;20111;-81
2021/03/22 00:16:57;;;;;;;7.00;3.85;;;;;;;-0.11;100.00;93596.06;10454932;28;20649;-81
2021/03/22 00:21:58;;;;;;;5.33;3.57;;;;;;;-0.15;100.00;93581.72;10480613;28;20032;-80
2021/03/22 00:26:58;;;;;;;5.17;3.00;;;;;;;-0.14;100.00;93578.88;10498629;28;20285;-80
2021/03/22 00:31:58;;;;;;;6.40;1.87;;;;;;;-0.25;100.00;93583.16;10497225;28;20028;-80
2021/03/22 00:37:02;;;;;;;3.17;2.30;;;;;;;-0.23;100.00;93573.13;10498429;28;20167;-81
2021/03/22 00:42:03;;;;;;;3.20;2.38;;;;;;;-0.29;100.00;93579.38;10496632;28;20286;-82
2021/03/22 00:47:03;;;;;;;3.67;2.33;;;;;;;-0.31;100.00;93581.44;10497486;28;20048;-82
2021/03/22 00:52:06;;;;;;;7.53;3.38;;;;;;;-0.26;100.00;93576.25;10496649;28;20185;-80
2021/03/22 00:57:08;;;;;;;6.40;3.60;;;;;;;-0.22;100.00;93569.47;10507832;28;20042;-79
2021/03/22 01:02:09;;;;;;;6.53;3.63;;;;;;;-0.21;100.00;93554.41;10491195;28;20028;-81
2021/03/22 01:07:09;;;;;;;7.17;3.43;;;;;;;-0.12;100.00;93545.09;10494192;28;20082;-82
2021/03/22 01:12:10;;;;;;;3.70;2.33;;;;;;;-0.15;100.00;93550.03;10494166;28;20267;-80
2021/03/22 01:17:10;;;;;;;7.53;3.67;;;;;;;-0.15;100.00;93523.63;10491772;28;20086;-81
2021/03/22 01:22:11;;;;;;;6.63;3.03;;;;;;;-0.21;100.00;93517.44;10491274;28;20098;-81
2021/03/22 01:27:11;;;;;;;2.00;1.55;;;;;;;-0.20;100.00;93517.22;10494141;28;20054;-81
2021/03/22 01:32:12;;;;;;;4.77;2.13;;;;;;;-0.14;100.00;93514.69;10493015;28;20515;-82
2021/03/22 01:37:13;;;;;;;3.28;2.20;;;;;;;-0.40;100.00;93504.44;10489806;28;20408;-82
2021/03/22 01:42:25;;;;;;;7.37;2.50;;;;;;;-0.45;100.00;93509.63;10493038;28;20095;-81
2021/03/22 01:47:31;;;;;;;4.88;2.72;;;;;;;-0.41;100.00;93496.78;10493004;28;20278;-82
2021/03/22 01:52:35;;;;;;;6.00;2.90;;;;;;;-0.45;100.00;93485.88;10494730;28;20057;-80
2021/03/22 01:57:44;;;;;;;4.38;1.80;;;;;;;-0.56;100.00;93484.06;10494441;28;20420;-82
2021/03/22 02:02:45;;;;;;;2.15;1.70;;;;;;;-0.57;100.00;93479.84;10493435;28;20028;-82
2021/03/22 02:07:51;;;;;;;3.70;2.10;;;;;;;-0.48;100.00;93475.78;10494185;28;20075;-81
2021/03/22 02:12:52;;;;;;;2.60;1.80;;;;;;;-0.53;100.00;93478.31;10493567;28;20032;-81
2021/03/22 02:17:52;;;;;;;3.08;2.13;;;;;;;-0.53;100.00;93468.59;10494282;28;20899;-82
2021/03/22 02:23:11;;;;;;;2.75;1.92;;;;;;;-0.62;100.00;93485.03;10493122;28;20506;-81
2021/03/22 02:28:50;;;;;;;2.60;1.88;;;;;;;-0.60;100.00;93464.47;10492388;28;20028;-81
2021/03/22 02:34:05;;;;;;;3.83;2.10;;;;;;;-0.58;100.00;93468.47;10492990;28;20475;-81
2021/03/22 02:39:06;;;;;;;3.63;2.63;;;;;;;-0.47;100.00;93466.06;10493865;28;20533;-82
2021/03/22 02:44:11;;;;;;;6.15;3.28;;;;;;;-0.37;100.00;93467.03;10500476;28;20051;-82
2021/03/22 02:49:15;;;;;;;4.05;3.00;;;;;;;-0.35;100.00;93461.50;10501128;28;20059;-82
2021/03/22 02:54:26;;;;;;;13.60;3.55;;;;;;;-0.27;100.00;93447.91;10500353;28;20051;-82
2021/03/22 02:59:57;;;;;;;5.03;2.70;;;;;;;-0.30;100.00;93448.41;10502105;28;20024;-82
2021/03/22 03:05:08;;;;;;;8.80;3.30;;;;;;;-0.39;100.00;93426.06;10489775;28;20032;-82
2021/03/22 03:10:10;;;;;;;3.88;3.10;;;;;;;-0.31;100.00;93425.66;10460229;28;20024;-81
2021/03/22 03:15:13;;;;;;;8.52;3.38;;;;;;;-0.28;100.00;93421.75;10459932;28;20759;-83
2021/03/22 03:20:18;;;;;;;5.82;2.35;;;;;;;-0.30;100.00;93418.56;10459965;28;20029;-83
2021/03/22 03:25:20;;;;;;;3.60;2.53;;;;;;;-0.34;100.00;93423.50;10460046;28;20017;-82
2021/03/22 03:30:28;;;;;;;3.17;1.90;;;;;;;-0.33;100.00;93403.22;10459633;28;20032;-82
2021/03/22 03:35:31;;;;;;;2.05;1.80;;;;;;;-0.26;100.00;93420.50;10455405;28;20739;-81
2021/03/22 03:40:35;;;;;;;3.10;1.73;;;;;;;-0.42;100.00;93415.97;10480634;28;20033;-80
2021/03/22 03:45:38;;;;;;;2.92;1.42;;;;;;;-0.48;100.00;93412.44;10454612;28;20032;-80
2021/03/22 03:50:40;;;;;;;2.38;1.60;;;;;;;-0.58;100.00;93402.50;10457835;28;20069;-82
2021/03/22 03:55:40;;;;;;;2.53;1.73;;;;;;;-0.51;100.00;93399.72;10458564;28;20078;-82
2021/03/22 04:00:43;;;;;;;9.13;1.88;;;;;;;-0.43;100.00;93396.72;10458210;28;20690;-82
2021/03/22 04:05:45;;;;;;;1.38;1.23;;;;;;;-0.39;100.00;93399.66;10457849;28;20029;-82
2021/03/22 04:10:47;;;;;;;2.13;1.33;;;;;;;-0.31;100.00;93399.28;10454634;28;20094;-82
2021/03/22 04:15:48;;;;;;;3.30;2.47;;;;;;;-0.36;100.00;93383.38;10444193;28;20376;-83
2021/03/22 04:20:48;;;;;;;5.88;2.78;;;;;;;-0.46;100.00;93384.00;10452913;28;20021;-82
2021/03/22 04:25:49;;;;;;;5.72;3.00;;;;;;;-0.44;100.00;93391.69;10456206;28;20032;-82
2021/03/22 04:30:49;;;;;;;4.82;3.45;;;;;;;-0.38;100.00;93383.63;10457030;28;20070;-81
2021/03/22 04:35:49;;;;;;;9.40;4.57;;;;;;;-0.31;100.00;93375.50;10457326;28;20016;-80
2021/03/22 04:40:50;;;;;;;9.10;4.53;;;;;;;-0.26;100.00;93382.75;10455420;28;20790;-80
2021/03/22 04:45:50;;;;;;;8.88;5.25;;;;;;;-0.32;100.00;93386.31;10482588;28;20035;-81
2021/03/22 04:50:51;;;;;;;13.23;6.77;;;;;;;-0.30;100.00;93390.31;10487680;28;20152;-79
2021/03/22 04:55:52;;;;;;;11.27;6.75;;;;;;;-0.37;100.00;93393.09;10452350;28;21036;-78
2021/03/22 05:00:52;;;;;;;9.20;5.25;;;;;;;-0.36;100.00;93389.44;10450971;28;20029;-85
2021/03/22 05:05:53;;;;;;;8.65;4.30;;;;;;;-0.29;100.00;93386.66;10444256;28;20024;-78
2021/03/22 05:10:57;;;;;;;7.68;4.40;;;;;;;-0.35;100.00;93393.69;10449070;28;20045;-79
2021/03/22 05:15:57;;;;;;;4.50;2.97;;;;;;;-0.36;100.00;93389.44;10451556;28;20025;-80
2021/03/22 05:21:04;;;;;;;4.90;3.10;;;;;;;-0.39;100.00;93395.19;10450500;28;20029;-80
2021/03/22 05:26:06;;;;;;;6.13;3.45;;;;;;;-0.33;100.00;93401.38;10495050;28;20784;-79
2021/03/22 05:31:08;;;;;;;7.38;3.13;;;;;;;-0.24;100.00;93418.44;10489010;28;20027;-79
2021/03/22 05:36:09;;;;;;;6.05;3.03;;;;;;;-0.24;100.00;93394.66;10489940;28;20113;-79
2021/03/22 05:41:18;;;;;;;6.32;4.00;;;;;;;-0.30;100.00;93411.44;10464106;28;20094;-75
2021/03/22 05:46:37;;;;;;;9.73;5.68;;;;;;;-0.22;100.00;93397.84;10452154;28;20392;-76
2021/03/22 05:51:54;;;;;;;13.40;5.95;;;;;;;-0.29;100.00;93397.22;10473209;28;20041;-76
2021/03/22 05:57:33;;;;;;;11.15;6.28;;;;;;;-0.25;100.00;93416.00;10492835;28;20032;-76
2021/03/22 06:02:45;;;;;;;11.27;5.97;;;;;;;-0.15;100.00;93415.38;10491843;28;20027;-76
2021/03/22 06:07:52;;;;;;;8.00;4.80;;;;;;;-0.14;100.00;93430.19;10491881;28;20024;-80
2021/03/22 06:12:57;;;;;;;8.00;4.13;;;;;;;-0.02;100.00;93417.69;10492940;28;20099;-80
2021/03/22 06:18:04;;;;;;;3.78;2.33;;;;;;;0.03;100.00;93424.91;10491794;28;20028;-80
2021/03/22 06:23:30;;;;;;;7.38;3.00;;;;;;;0.21;100.00;93410.66;10490642;28;20109;-79
2021/03/22 06:28:38;;;;;;;6.90;3.75;;;;;;;0.14;100.00;93424.84;10487158;28;20028;-79
2021/03/22 06:33:45;;;;;;;8.57;3.35;;;;;;;0.23;100.00;93419.16;10487287;28;20100;-79
2021/03/22 06:38:49;;;;;;;7.95;3.67;;;;;;;0.27;100.00;93415.00;10489131;28;20077;-79
2021/03/22 06:43:52;;;;;;;9.82;3.72;;;;;;;0.44;100.00;93425.53;10488061;28;20099;-79
2021/03/22 06:49:20;;;;;;;6.90;3.85;;;;;;;0.67;100.00;93427.97;10487515;28;20024;-79
2021/03/22 06:54:39;;;;;;;7.88;2.63;;;;;;;1.08;100.00;93411.81;10447690;28;20128;-79
2021/03/22 07:00:00;;;;;;;3.67;2.30;;;;;;;1.54;100.00;93414.97;10448564;28;20033;-79
2021/03/22 07:05:18;;;;;;;2.38;1.58;;;;;;;1.88;100.00;93417.44;10444785;28;20068;-78
2021/03/22 07:10:18;;;;;;;3.70;1.70;;;;;;;1.97;100.00;93407.16;10446680;28;20013;-78
2021/03/22 07:15:28;;;;;;;2.17;1.10;;;;;;;1.74;100.00;93410.13;10466450;28;20092;-79
2021/03/22 07:20:29;;;;;;;2.30;1.90;;;;;;;1.71;100.00;93406.13;10450468;28;20446;-78
2021/03/22 07:25:38;;;;;;;3.75;2.88;;;;;;;1.66;100.00;93414.84;10482987;28;20048;-78
2021/03/22 07:30:48;;;;;;;6.55;4.28;;;;;;;1.60;100.00;93417.69;10468179;28;20545;-79
2021/03/22 07:36:21;;;;;;;9.40;4.75;;;;;;;1.62;100.00;93423.50;10474695;28;20039;-79
2021/03/22 07:41:50;;;;;;;22.02;9.15;;;;;;;1.75;100.00;93441.66;10498537;28;20024;-79
2021/03/22 07:47:11;;;;;;;23.67;11.48;;;;;;;1.54;100.00;93441.44;10495576;28;20444;-79
2021/03/22 07:52:49;;;;;;;16.80;9.60;;;;;;;1.48;100.00;93439.81;10470317;28;20041;-79
2021/03/22 07:57:58;;;;;;;13.35;6.85;;;;;;;1.65;100.00;93444.22;10476972;28;20035;-79
2021/03/22 08:03:04;;;;;;;9.73;4.45;;;;;;;1.76;100.00;93448.56;10475010;28;20032;-78
2021/03/22 08:08:19;;;;;;;8.73;3.80;;;;;;;1.64;100.00;93450.56;10484867;28;20033;-78
2021/03/22 08:13:22;;;;;;;18.63;4.22;;;;;;;1.50;100.00;93443.00;10495110;28;20089;-79
2021/03/22 08:18:41;;;;;;;3.85;2.20;;;;;;;1.43;100.00;93438.94;10492705;28;20842;-80
2021/03/22 08:23:59;;;;;;;7.78;2.20;;;;;;;1.45;100.00;93435.00;10458777;28;20063;-80
2021/03/22 08:29:02;;;;;;;3.42;2.72;;;;;;;1.84;100.00;93424.28;10473814;28;20467;-79
2021/03/22 08:34:07;;;;;;;5.47;2.40;;;;;;;1.54;100.00;93428.22;10464234;28;20043;-78
2021/03/22 08:39:34;;;;;;;7.00;2.95;;;;;;;2.02;100.00;93438.19;10452918;28;20372;-79
2021/03/22 08:44:59;;;;;;;7.70;3.70;;;;;;;2.21;100.00;93428.81;10452484;28;20021;-78
2021/03/22 08:50:00;;;;;;;6.50;4.38;;;;;;;2.35;100.00;93439.78;10478817;28;20034;-80
2021/03/22 08:55:04;;;;;;;10.02;5.82;;;;;;;2.28;100.00;93433.91;10490736;28;20969;-79
2021/03/22 09:00:28;;;;;;;7.47;4.40;;;;;;;2.70;100.00;93429.69;10484591;28;20039;-80
2021/03/22 09:05:33;;;;;;;11.45;4.93;;;;;;;2.90;100.00;93426.34;10466881;28;20048;-78
2021/03/22 09:10:41;;;;;;;6.18;3.85;;;;;;;2.68;100.00;93426.47;10475392;28;20032;-78
2021/03/22 09:15:58;;;;;;;10.82;6.32;;;;;;;2.54;100.00;93428.78;10467690;28;20926;-78
2021/03/22 09:21:18;;;;;;;8.52;4.75;;;;;;;2.27;100.00;93432.31;10485868;28;20578;-77
2021/03/22 09:26:50;;;;;;;8.02;5.20;;;;;;;2.34;100.00;93437.38;10467303;28;20025;-78
2021/03/22 09:31:51;;;;;;;14.95;5.10;;;;;;;2.43;100.00;93430.56;10479402;28;20450;-78
2021/03/22 09:36:51;;;;;;;6.22;3.78;;;;;;;2.12;100.00;93429.53;10471828;28;20032;-77
2021/03/22 09:41:51;;;;;;;6.18;4.43;;;;;;;2.35;100.00;93425.75;10484222;28;20408;-78
2021/03/22 09:47:14;;;;;;;7.57;4.75;;;;;;;2.54;100.00;93410.22;10481307;28;20024;-78
2021/03/22 09:52:22;;;;;;;7.65;4.20;;;;;;;2.89;100.00;93403.53;10460320;28;20052;-78
2021/03/22 09:57:22;;;;;;;5.40;3.85;;;;;;;3.35;100.00;93394.94;10441475;28;20519;-80
2021/03/22 10:02:42;;;;;;;5.45;3.25;;;;;;;3.97;100.00;93392.41;10442582;28;20021;-78
2021/03/22 10:07:49;;;;;;;8.65;3.53;;;;;;;3.50;100.00;93395.00;10445316;28;20536;-79
2021/03/22 10:12:56;;;;;;;7.38;4.07;;;;;;;3.02;100.00;93403.03;10443949;28;20036;-79
2021/03/22 10:18:10;;;;;;;6.50;5.10;;;;;;;2.37;100.00;93410.38;10444813;28;20083;-78
2021/03/22 10:23:33;;;;;;;12.98;5.13;;;;;;;3.04;100.00;93408.91;10444692;28;20029;-78
2021/03/22 10:28:34;;;;;;;12.20;6.35;;;;;;;3.49;100.00;93412.00;10445113;28;20024;-78
2021/03/22 10:33:34;;;;;;;6.45;4.30;;;;;;;3.49;100.00;93414.66;10457523;28;20021;-78
2021/03/22 10:38:37;;;;;;;8.50;3.83;;;;;;;3.65;100.00;93417.34;10448308;28;20075;-79
2021/03/22 10:43:39;;;;;;;6.68;4.55;;;;;;;3.22;100.00;93422.78;10461016;28;20337;-77
2021/03/22 10:48:40;;;;;;;11.23;4.78;;;;;;;2.64;100.00;93420.13;10480215;28;20100;-77
2021/03/22 10:53:59;;;;;;;9.32;5.18;;;;;;;1.66;100.00;93422.78;10481437;28;20826;-78
2021/03/22 10:59:05;;;;;;;11.65;6.43;;;;;;;1.53;100.00;93423.16;10465776;28;20065;-79
2021/03/22 11:04:15;;;;;;;12.25;6.65;;;;;;;1.17;100.00;93431.53;10483402;28;20028;-79
2021/03/22 11:09:21;;;;;;;11.15;6.38;;;;;;;1.13;100.00;93429.59;10484731;28;20104;-79
2021/03/22 11:14:25;;;;;;;12.75;7.43;;;;;;;1.35;100.00;93434.88;10492234;28;20028;-79
2021/03/22 11:19:28;;;;;;;14.55;8.50;;;;;;;1.38;100.00;93433.59;10480008;28;20472;-79
2021/03/22 11:24:41;;;;;;;10.50;6.28;;;;;;;1.63;100.00;93433.06;10455629;28;20025;-79
2021/03/22 11:29:50;;;;;;;11.35;7.50;;;;;;;1.35;100.00;93432.22;10475465;28;20494;-77
2021/03/22 11:34:50;;;;;;;;;;;;;;;1.26;100.00;93428.44;10450030;28;20036;-78
2021/03/22 11:40:06;;;;;;;10.57;6.75;;;;;;;1.47;100.00;93432.91;10450243;28;19912;-78
2021/03/22 11:45:27;;;;;;;10.80;5.97;;;;;;;1.49;100.00;93416.75;10479610;28;20028;-78
2021/03/22 11:50:45;;;;;;;18.73;8.13;;;;;;;1.10;100.00;93422.94;10448320;28;20099;-78
2021/03/22 11:56:17;;;;;;;11.30;7.03;;;;;;;1.17;100.00;93428.06;10465734;28;20127;-78
2021/03/22 12:01:25;;;;;;;10.70;6.45;;;;;;;0.90;100.00;93433.28;10443641;28;20045;-78
2021/03/22 12:06:25;;;;;;;11.13;6.95;;;;;;;0.64;100.00;93439.03;10467507;28;20068;-78
2021/03/22 12:11:28;;;;;;;11.57;7.77;;;;;;;0.49;100.00;93441.47;10449219;28;20124;-78
2021/03/22 12:16:35;;;;;;;14.50;8.48;;;;;;;0.96;100.00;93443.72;10465686;28;20362;-78
2021/03/22 12:21:36;;;;;;;14.70;6.28;;;;;;;1.39;100.00;93457.16;10486247;28;20036;-77
2021/03/22 12:26:37;;;;;;;8.95;5.18;;;;;;;1.41;100.00;93463.03;10450395;28;20155;-77
2021/03/22 12:31:44;;;;;;;10.68;3.92;;;;;;;1.62;100.00;93464.03;10460633;28;20072;-77
2021/03/22 12:36:45;;;;;;;12.13;5.68;;;;;;;1.63;100.00;93464.84;10479635;28;20380;-78
2021/03/22 12:41:46;;;;;;;7.78;2.42;;;;;;;1.77;100.00;93471.34;10454304;28;20051;-78
2021/03/22 12:46:46;;;;;;;15.38;2.42;;;;;;;1.78;100.00;93465.00;10444020;28;20137;-78
2021/03/22 12:51:47;;;;;;;5.68;2.28;;;;;;;1.68;100.00;93470.97;10453322;28;20182;-78
2021/03/22 12:56:48;;;;;;;4.25;2.70;;;;;;;1.52;100.00;93477.97;10447194;28;20044;-77
2021/03/22 13:01:49;;;;;;;11.48;5.53;;;;;;;1.27;100.00;93480.31;10444210;28;20029;-78
2021/03/22 13:06:49;;;;;;;14.43;4.60;;;;;;;1.10;100.00;93483.81;10471188;28;20029;-78
2021/03/22 13:11:49;;;;;;;8.80;5.90;;;;;;;0.83;100.00;93487.16;10464132;28;20120;-78
2021/03/22 13:16:50;;;;;;;12.07;5.25;;;;;;;0.65;100.00;93498.78;10485329;28;20029;-77
2021/03/22 13:21:51;;;;;;;5.60;4.38;;;;;;;0.57;100.00;93501.06;10480743;28;20498;-78
2021/03/22 13:26:51;;;;;;;4.93;3.92;;;;;;;0.60;100.00;93500.56;10462168;28;20361;-78
2021/03/22 13:31:52;;;;;;;9.05;4.07;;;;;;;0.76;100.00;93509.53;10443377;28;20045;-77
2021/03/22 13:36:53;;;;;;;6.05;4.93;;;;;;;0.74;100.00;93516.91;10442525;28;20025;-77
2021/03/22 13:41:55;;;;;;;5.53;4.30;;;;;;;0.76;100.00;93512.97;10467510;28;20324;-77
2021/03/22 13:46:55;;;;;;;7.28;4.25;;;;;;;0.74;100.00;93512.44;10484063;28;20842;-78
2021/03/22 13:51:56;;;;;;;5.28;3.95;;;;;;;1.05;100.00;93504.09;10466655;28;20033;-78
2021/03/22 13:56:56;;;;;;;7.80;4.35;;;;;;;1.15;100.00;93515.63;10442742;28;20120;-78
2021/03/22 14:01:57;;;;;;;13.50;4.77;;;;;;;1.26;100.00;93518.44;10442991;28;20025;-79
2021/03/22 14:06:58;;;;;;;6.45;3.83;;;;;;;1.36;100.00;93535.22;10442478;28;20275;-78
2021/03/22 14:11:59;;;;;;;6.88;3.60;;;;;;;0.92;100.00;93545.75;10467252;28;20021;-77
2021/03/22 14:16:59;;;;;;;5.25;3.22;;;;;;;0.75;100.00;93544.94;10483975;28;20026;-77
2021/03/22 14:21:59;;;;;;;8.17;3.90;;;;;;;0.74;100.00;93549.44;10447751;28;20028;-78
2021/03/22 14:27:00;;;;;;;5.05;3.55;;;;;;;0.66;100.00;93563.06;10475022;28;20271;-77
2021/03/22 14:32:00;;;;;;;5.27;3.30;;;;;;;0.74;100.00;93559.22;10478315;28;20104;-77
2021/03/22 14:37:01;;;;;;;7.65;3.75;;;;;;;0.56;100.00;93569.00;10446219;28;20278;-79
2021/03/22 14:42:01;;;;;;;7.18;3.85;;;;;;;0.93;100.00;93570.34;10480659;28;20025;-78
2021/03/22 14:47:02;;;;;;;12.40;6.50;;;;;;;1.06;100.00;93575.31;10440469;28;20029;-78
2021/03/22 14:52:02;;;;;;;5.78;4.15;;;;;;;1.21;100.00;93573.94;10440517;28;20045;-78
2021/03/22 14:57:04;;;;;;;7.40;4.55;;;;;;;1.02;100.00;93572.34;10461517;28;20056;-78
2021/03/22 15:02:04;;;;;;;5.63;3.83;;;;;;;1.04;100.00;93584.53;10468662;28;20051;-78
2021/03/22 15:07:05;;;;;;;10.27;6.13;;;;;;;0.91;100.00;93593.59;10453321;28;20041;-78
2021/03/22 15:12:09;;;;;;;9.43;4.90;;;;;;;0.92;100.00;93603.13;10468634;28;20028;-78
2021/03/22 15:17:09;;;;;;;10.52;5.00;;;;;;;0.85;100.00;93608.56;10463522;28;20028;-78
2021/03/22 15:22:10;;;;;;;8.93;5.07;;;;;;;0.76;100.00;93616.13;10454893;28;20020;-78
2021/03/22 15:27:10;;;;;;;8.57;4.10;;;;;;;0.88;100.00;93628.47;10460843;28;20866;-78
2021/03/22 15:32:10;;;;;;;7.10;4.60;;;;;;;0.85;100.00;93633.19;10465078;28;20024;-78
2021/03/22 15:37:11;;;;;;;7.53;4.87;;;;;;;0.69;100.00;93641.91;10463193;28;20286;-78
2021/03/22 15:42:12;;;;;;;7.80;4.63;;;;;;;0.61;100.00;93650.22;10479597;28;20283;-79
2021/03/22 15:47:12;;;;;;;7.00;3.90;;;;;;;0.34;100.00;93666.69;10442126;28;20064;-78
2021/03/22 15:52:12;;;;;;;7.10;3.50;;;;;;;0.16;100.00;93665.81;10469948;28;20048;-78
2021/03/22 15:57:13;;;;;;;5.33;3.97;;;;;;;0.03;100.00;93678.47;10479586;28;20033;-78
2021/03/22 16:02:13;;;;;;;9.87;4.53;;;;;;;0.03;100.00;93681.94;10447035;28;20380;-77
2021/03/22 16:07:13;;;;;;;8.47;4.53;;;;;;;-0.04;100.00;93697.91;10473783;28;20298;-77
2021/03/22 16:12:14;;;;;;;7.33;4.83;;;;;;;-0.03;100.00;93701.34;10486939;28;20483;-77
2021/03/22 16:17:14;;;;;;;12.57;5.13;;;;;;;-0.01;100.00;93708.00;10488276;28;20028;-78
2021/03/22 16:22:15;;;;;;;9.35;5.63;;;;;;;-0.21;100.00;93712.84;10447275;28;20087;-77
2021/03/22 16:27:16;;;;;;;8.07;4.68;;;;;;;-0.21;100.00;93726.88;10451376;28;20034;-77
2021/03/22 16:32:17;;;;;;;10.02;4.57;;;;;;;-0.15;100.00;93735.69;10453249;28;20078;-77
2021/03/22 16:37:17;;;;;;;9.02;5.03;;;;;;;-0.03;100.00;93747.06;10479233;28;20039;-77
2021/03/22 16:42:18;;;;;;;7.70;4.32;;;;;;;-0.33;100.00;93749.81;10445031;28;20090;-78
2021/03/22 16:47:18;;;;;;;7.40;3.88;;;;;;;-0.22;100.00;93750.88;10464562;28;20033;-77
2021/03/22 16:52:18;;;;;;;14.70;5.25;;;;;;;-0.21;100.00;93766.47;10459022;28;20041;-77
2021/03/22 16:57:19;;;;;;;4.13;3.13;;;;;;;-0.23;100.00;93773.00;10458656;28;20037;-78
2021/03/22 17:02:20;;;;;;;4.87;3.17;;;;;;;-0.25;100.00;93781.16;10459376;28;20282;-78
2021/03/22 17:07:20;;;;;;;7.68;4.47;;;;;;;-0.21;100.00;93797.34;10481507;28;20025;-79
2021/03/22 17:12:21;;;;;;;10.17;4.17;;;;;;;-0.16;100.00;93809.88;10484092;28;20025;-78
2021/03/22 17:17:23;;;;;;;8.07;4.47;;;;;;;-0.24;100.00;93817.09;10467112;28;20478;-76
2021/03/22 17:22:23;;;;;;;4.68;3.90;;;;;;;-0.23;100.00;93816.06;10484029;28;20021;-76
2021/03/22 17:27:24;;;;;;;7.93;4.13;;;;;;;-0.31;100.00;93813.75;10452204;28;20029;-76
2021/03/22 17:32:24;;;;;;;7.77;4.60;;;;;;;-0.65;100.00;93818.75;10484935;28;20024;-76
2021/03/22 17:37:24;;;;;;;7.20;4.47;;;;;;;-0.73;100.00;93824.34;10484708;28;20381;-78
2021/03/22 17:42:25;;;;;;;14.85;6.28;;;;;;;-0.89;100.00;93841.63;10491841;28;20635;-78
2021/03/22 17:47:25;;;;;;;7.03;5.20;;;;;;;-0.94;100.00;93842.28;10492018;28;20021;-78
2021/03/22 17:52:25;;;;;;;7.43;5.30;;;;;;;-1.03;100.00;93864.75;10488992;28;20036;-78
2021/03/22 17:57:26;;;;;;;9.55;4.82;;;;;;;-1.01;100.00;93861.88;10465287;28;20290;-78
2021/03/22 18:02:27;;;;;;;5.07;3.93;;;;;;;-1.00;100.00;93863.50;10455730;28;20530;-77
2021/03/22 18:07:27;;;;;;;6.38;4.97;;;;;;;-1.09;100.00;93866.44;10485759;28;20029;-78
2021/03/22 18:12:27;;;;;;;6.37;3.93;;;;;;;-1.08;100.00;93875.13;10448671;28;20400;-77
2021/03/22 18:17:28;;;;;;;4.50;3.60;;;;;;;-1.16;100.00;93881.50;10446458;28;21068;-78
2021/03/22 18:22:28;;;;;;;5.63;3.27;;;;;;;-1.28;100.00;93884.09;10449334;28;20035;-78
2021/03/22 18:27:28;;;;;;;6.10;4.87;;;;;;;-1.28;100.00;93893.84;10488339;28;20039;-77
2021/03/22 18:32:29;;;;;;;5.13;3.60;;;;;;;-1.25;100.00;93914.47;10487227;28;20093;-77
2021/03/22 18:37:29;;;;;;;5.18;3.83;;;;;;;-1.27;100.00;93919.16;10477524;28;20020;-77
2021/03/22 18:42:30;;;;;;;7.93;3.17;;;;;;;-1.24;100.00;93919.53;10448036;28;20035;-78
2021/03/22 18:47:30;;;;;;;6.30;5.17;;;;;;;-1.23;100.00;93926.41;10486853;28;20476;-77
2021/03/22 18:52:30;;;;;;;5.80;4.07;;;;;;;-1.08;100.00;93935.78;10471945;28;20491;-78
2021/03/22 18:57:31;;;;;;;5.37;3.83;;;;;;;-1.06;100.00;93939.81;10488916;28;20832;-78
2021/03/22 19:02:31;;;;;;;5.90;3.17;;;;;;;-1.13;100.00;93941.72;10489027;28;20060;-78
2021/03/22 19:07:31;;;;;;;5.30;3.77;;;;;;;-1.11;100.00;93952.84;10488995;28;20033;-78
2021/03/22 19:12:32;;;;;;;6.70;3.23;;;;;;;-1.13;100.00;93970.72;10487475;28;20028;-78
2021/03/22 19:17:32;;;;;;;4.07;3.15;;;;;;;-1.16;100.00;93968.50;10460764;28;20105;-77
2021/03/22 19:22:33;;;;;;;5.83;4.80;;;;;;;-1.17;100.00;93976.63;10456492;28;20074;-77
2021/03/22 19:27:34;;;;;;;6.82;4.43;;;;;;;-1.18;100.00;93975.06;10484543;28;20031;-77
2021/03/22 19:32:35;;;;;;;7.57;5.43;;;;;;;-1.28;100.00;93988.75;10491922;28;20455;-78
2021/03/22 19:37:35;;;;;;;10.63;6.70;;;;;;;-1.26;100.00;93989.31;10497083;28;20103;-77
2021/03/22 19:42:35;;;;;;;11.23;7.87;;;;;;;-1.29;100.00;93995.03;10495738;28;20016;-79
2021/03/22 19:47:36;;;;;;;7.50;6.13;;;;;;;-1.30;100.00;94003.94;10493313;28;20271;-79
2021/03/22 19:52:36;;;;;;;8.37;5.53;;;;;;;-1.32;100.00;94016.56;10491009;28;20040;-79
2021/03/22 19:57:38;;;;;;;7.72;4.93;;;;;;;-1.33;100.00;94018.38;10495970;28;20730;-79
2021/03/22 20:07:48;;;;;;;14.13;6.38;;;;;;;-1.31;100.00;94024.25;10158586;22;20480;-77
2021/03/22 20:12:50;;;;;;;9.95;6.03;;;;;;;-1.26;100.00;94029.66;10466112;28;20097;-77
2021/03/22 20:17:51;;;;;;;13.10;6.47;;;;;;;-1.26;100.00;94039.41;10490896;28;20036;-78
2021/03/22 20:22:52;;;;;;;10.23;7.55;;;;;;;-1.16;100.00;94033.63;10491722;28;20395;-77
2021/03/22 20:27:52;;;;;;;12.65;6.93;;;;;;;-1.18;100.00;94033.06;10489918;28;20032;-78
2021/03/22 20:32:56;;;;;;;13.60;6.63;;;;;;;-0.98;100.00;94038.13;10471582;28;20522;-77
2021/03/22 20:37:58;;;;;;;10.65;6.63;;;;;;;-1.02;100.00;94043.00;10450719;28;20099;-77
2021/03/22 20:43:00;;;;;;;10.80;6.53;;;;;;;-0.86;100.00;94042.44;10449383;28;20021;-77
2021/03/22 20:48:02;;;;;;;9.13;5.57;;;;;;;-0.87;100.00;94048.75;10448336;28;20037;-77
2021/03/22 20:53:03;;;;;;;10.10;5.72;;;;;;;-0.82;100.00;94040.19;10453598;28;20058;-77
2021/03/22 20:58:05;;;;;;;8.32;5.85;;;;;;;-1.02;100.00;94056.19;10490752;28;20120;-77
2021/03/22 21:03:07;;;;;;;7.30;5.35;;;;;;;-0.96;100.00;94054.53;10476005;28;20040;-77
2021/03/22 21:08:09;;;;;;;9.55;5.43;;;;;;;-0.94;100.00;94061.19;10489964;28;20028;-77
2021/03/22 21:13:15;;;;;;;7.75;5.07;;;;;;;-0.86;100.00;94058.28;10470423;28;20059;-77
2021/03/22 21:18:16;;;;;;;8.80;4.28;;;;;;;-0.85;100.00;94067.00;10489961;28;20040;-77
2021/03/22 21:23:19;;;;;;;6.65;5.13;;;;;;;-1.03;100.00;94067.78;10488766;28;20035;-78
2021/03/22 21:28:20;;;;;;;8.05;5.90;;;;;;;-1.12;100.00;94069.88;10488159;28;20040;-77
2021/03/22 21:33:21;;;;;;;13.95;5.05;;;;;;;-1.04;100.00;94063.53;10488981;28;20437;-78
2021/03/22 21:38:25;;;;;;;7.75;4.88;;;;;;;-1.14;100.00;94060.59;10481594;28;20522;-78
2021/03/22 21:43:26;;;;;;;8.90;5.05;;;;;;;-1.04;100.00;94066.19;10464710;28;20059;-78
2021/03/22 21:48:27;;;;;;;9.38;4.88;;;;;;;-0.97;100.00;94071.41;10491071;28;20409;-78
2021/03/22 21:53:30;;;;;;;7.90;4.40;;;;;;;-0.91;100.00;94071.34;10492552;28;20024;-78
2021/03/22 21:58:30;;;;;;;14.73;5.75;;;;;;;-0.91;100.00;94075.78;10491910;28;20116;-75
2021/03/22 22:03:31;;;;;;;10.65;5.53;;;;;;;-0.84;100.00;94078.38;10475315;28;20479;-74
2021/03/22 22:08:32;;;;;;;9.07;4.65;;;;;;;-0.89;100.00;94082.47;10446161;28;20044;-74
2021/03/22 22:13:32;;;;;;;10.35;4.30;;;;;;;-0.89;100.00;94090.38;10446517;28;20154;-75
2021/03/22 22:18:33;;;;;;;9.18;4.88;;;;;;;-0.93;100.00;94094.47;10446606;28;20380;-74
2021/03/22 22:23:33;;;;;;;9.48;4.90;;;;;;;-0.86;100.00;94108.41;10456686;28;20032;-74
2021/03/22 22:28:34;;;;;;;6.33;3.77;;;;;;;-0.91;100.00;94108.25;10487705;28;20028;-74
2021/03/22 22:33:34;;;;;;;11.85;4.30;;;;;;;-0.84;100.00;94108.19;10487058;28;20277;-74
2021/03/22 22:38:34;;;;;;;7.80;4.70;;;;;;;-0.73;100.00;94111.94;10490822;28;20479;-76
2021/03/22 22:43:35;;;;;;;9.23;4.77;;;;;;;-0.73;100.00;94112.72;10466935;28;20111;-83
2021/03/22 22:48:35;;;;;;;7.82;4.68;;;;;;;-0.76;100.00;94115.00;10451176;28;20271;-83
2021/03/22 22:53:36;;;;;;;7.63;5.10;;;;;;;-0.83;100.00;94117.72;10451713;28;20021;-81
2021/03/22 22:58:36;;;;;;;7.17;4.50;;;;;;;-0.90;100.00;94128.31;10455741;28;20333;-84
2021/03/22 23:03:36;;;;;;;9.03;5.20;;;;;;;-0.95;100.00;94122.91;10458621;28;20056;-81
2021/03/22 23:08:39;;;;;;;6.72;5.00;;;;;;;-1.02;100.00;94126.63;10480141;28;20306;-81
2021/03/22 23:13:42;;;;;;;10.40;4.88;;;;;;;-1.06;100.00;94137.59;10499624;28;20024;-82
2021/03/22 23:18:45;;;;;;;9.23;4.78;;;;;;;-1.04;100.00;94140.00;10498646;28;20041;-82
2021/03/22 23:23:50;;;;;;;6.22;4.50;;;;;;;-1.07;100.00;94143.88;10498218;28;20028;-82
2021/03/22 23:28:51;;;;;;;7.78;4.82;;;;;;;-1.09;100.00;94135.41;10491452;28;20029;-82